RRR4718 EGWU-EGVN

Flight info

Callsign RRR4718
Flight time 0h 19m
Altitude 2000
Route VFR MAPLE CROSS DCT BZ
Aircraft A400/H-V/N

Departure

Time 2026-05-05 13:01
Airport RAF Northolt (EGWU)

Arrival

Time 2026-05-05 13:20
Airport RAF Brize Norton (EGVN)
Time Latitude Longitude Altitude Speed Heading
2026-05-05 12:49 51.54992 -0.41562 129 ft 0 kts 275°
2026-05-05 12:56 51.54992 -0.41563 129 ft 1 kts 275°
2026-05-05 12:57 51.54994 -0.41574 124 ft 2 kts 281°
2026-05-05 12:57 51.54997 -0.41597 124 ft 3 kts 281°
2026-05-05 12:57 51.55002 -0.41642 127 ft 5 kts 281°
2026-05-05 12:57 51.55011 -0.41714 125 ft 7 kts 281°
2026-05-05 12:58 51.55022 -0.41798 129 ft 8 kts 281°
2026-05-05 12:58 51.55032 -0.41881 129 ft 7 kts 281°
2026-05-05 12:58 51.55040 -0.41949 126 ft 6 kts 280°
2026-05-05 12:58 51.55047 -0.42011 132 ft 6 kts 280°
2026-05-05 12:59 51.55039 -0.42086 123 ft 8 kts 252°
2026-05-05 12:59 51.55019 -0.42176 127 ft 9 kts 249°
2026-05-05 12:59 51.54996 -0.42275 123 ft 10 kts 249°
2026-05-05 13:00 51.54949 -0.42527 130 ft 13 kts 271°
2026-05-05 13:00 51.54960 -0.42667 129 ft 13 kts 285°
2026-05-05 13:01 51.55229 -0.42178 135 ft 120 kts 69°
2026-05-05 13:01 51.55608 -0.40608 770 ft 164 kts 66°
2026-05-05 13:01 51.56056 -0.38744 1575 ft 196 kts 66°
2026-05-05 13:01 51.56597 -0.36635 2085 ft 209 kts 60°
2026-05-05 13:02 51.57615 -0.34984 2290 ft 211 kts 28°
2026-05-05 13:02 51.59032 -0.34399 2149 ft 212 kts
2026-05-05 13:02 51.60504 -0.34331 2005 ft 212 kts
2026-05-05 13:02 51.61972 -0.34340 1989 ft 211 kts
2026-05-05 13:03 51.63448 -0.34346 2018 ft 212 kts
2026-05-05 13:03 51.64927 -0.34366 2021 ft 212 kts
2026-05-05 13:03 51.66399 -0.34441 2018 ft 212 kts 353°
2026-05-05 13:03 51.67724 -0.35448 2023 ft 216 kts 321°
2026-05-05 13:04 51.68757 -0.37217 2023 ft 218 kts 312°
2026-05-05 13:04 51.69717 -0.39109 2021 ft 218 kts 311°
2026-05-05 13:04 51.70666 -0.41017 2020 ft 218 kts 311°
2026-05-05 13:04 51.71612 -0.42937 2025 ft 219 kts 311°
2026-05-05 13:05 51.72551 -0.44877 2016 ft 219 kts 311°
2026-05-05 13:05 51.73480 -0.46829 2018 ft 220 kts 310°
2026-05-05 13:05 51.74412 -0.48783 2018 ft 220 kts 310°
2026-05-05 13:05 51.75340 -0.50740 1990 ft 219 kts 311°
2026-05-05 13:06 51.76221 -0.52739 1985 ft 220 kts 302°
2026-05-05 13:06 51.76729 -0.55040 1991 ft 224 kts 282°
2026-05-05 13:06 51.76821 -0.57559 1993 ft 226 kts 272°
2026-05-05 13:06 51.76767 -0.60115 2000 ft 233 kts 269°
2026-05-05 13:07 51.76666 -0.62862 1986 ft 254 kts 268°
2026-05-05 13:07 51.76544 -0.65747 1988 ft 260 kts 268°
2026-05-05 13:07 51.76415 -0.68661 1997 ft 261 kts 267°
2026-05-05 13:07 51.76283 -0.71580 1987 ft 260 kts 268°
2026-05-05 13:08 51.76150 -0.74504 1992 ft 262 kts 268°
2026-05-05 13:08 51.76016 -0.77444 1991 ft 263 kts 268°
2026-05-05 13:08 51.75882 -0.80387 1996 ft 264 kts 268°
2026-05-05 13:08 51.75747 -0.83342 2001 ft 264 kts 268°
2026-05-05 13:09 51.75610 -0.86297 1994 ft 263 kts 268°
2026-05-05 13:09 51.75473 -0.89236 2000 ft 263 kts 268°
2026-05-05 13:09 51.75336 -0.92171 2001 ft 262 kts 267°
2026-05-05 13:09 51.75198 -0.95104 1994 ft 262 kts 267°
2026-05-05 13:10 51.75060 -0.98024 1989 ft 260 kts 268°
2026-05-05 13:10 51.74921 -1.00935 1996 ft 261 kts 268°
2026-05-05 13:10 51.74782 -1.03849 1995 ft 260 kts 268°
2026-05-05 13:10 51.74644 -1.06763 1999 ft 261 kts 268°
2026-05-05 13:11 51.74504 -1.09673 1998 ft 260 kts 268°
2026-05-05 13:11 51.74363 -1.12576 1995 ft 260 kts 268°
2026-05-05 13:11 51.74222 -1.15476 1995 ft 259 kts 268°
2026-05-05 13:11 51.74080 -1.18381 1995 ft 260 kts 268°
2026-05-05 13:12 51.73900 -1.21288 1993 ft 260 kts 264°
2026-05-05 13:12 51.73575 -1.24051 2000 ft 241 kts 261°
2026-05-05 13:12 51.73226 -1.26642 1997 ft 233 kts 260°
2026-05-05 13:12 51.72882 -1.29182 1996 ft 230 kts 260°
2026-05-05 13:13 51.72551 -1.31568 1992 ft 206 kts 261°
2026-05-05 13:13 51.72343 -1.33021 2014 ft 197 kts 261°
2026-05-05 13:13 51.72031 -1.35142 2001 ft 193 kts 260°
2026-05-05 13:13 51.71739 -1.37232 1989 ft 190 kts 261°
2026-05-05 13:14 51.71449 -1.39310 2002 ft 190 kts 260°
2026-05-05 13:14 51.71162 -1.41388 1997 ft 188 kts 262°
2026-05-05 13:14 51.71001 -1.43444 1996 ft 179 kts 268°
2026-05-05 13:14 51.70940 -1.45383 1990 ft 170 kts 271°
2026-05-05 13:15 51.70884 -1.47256 1982 ft 166 kts 270°
2026-05-05 13:15 51.70829 -1.49114 1994 ft 166 kts 271°
2026-05-05 13:15 51.70767 -1.50968 1991 ft 166 kts 271°
2026-05-05 13:15 51.70691 -1.52779 2004 ft 155 kts 270°
2026-05-05 13:16 51.70599 -1.54482 1921 ft 150 kts 268°
2026-05-05 13:16 51.70406 -1.56130 1822 ft 149 kts 262°
2026-05-05 13:16 51.70172 -1.57744 1769 ft 148 kts 259°
2026-05-05 13:16 51.69918 -1.59350 1795 ft 148 kts 259°
2026-05-05 13:17 51.69656 -1.60947 1775 ft 147 kts 258°
2026-05-05 13:17 51.69467 -1.62540 1781 ft 143 kts 276°
2026-05-05 13:17 51.69724 -1.64021 1676 ft 134 kts 308°
2026-05-05 13:17 51.70414 -1.64968 1519 ft 130 kts 336°
2026-05-05 13:18 51.71290 -1.65359 1466 ft 131 kts 356°
2026-05-05 13:18 51.72191 -1.65221 1419 ft 131 kts 14°
2026-05-05 13:18 51.73018 -1.64612 1271 ft 129 kts 31°
2026-05-05 13:18 51.73671 -1.63648 988 ft 130 kts 47°
2026-05-05 13:19 51.74154 -1.62451 690 ft 127 kts 59°
2026-05-05 13:19 51.74480 -1.61110 467 ft 131 kts 70°
2026-05-05 13:19 51.74737 -1.59731 308 ft 115 kts 68°
2026-05-05 13:19 51.74965 -1.58484 335 ft 115 kts 70°
2026-05-05 13:20 51.75150 -1.57488 283 ft 69 kts 72°
2026-05-05 13:20 51.75258 -1.56903 278 ft 42 kts 72°
2026-05-05 13:20 51.75374 -1.56713 275 ft 13 kts 343°
2026-05-05 13:20 51.75446 -1.56750 276 ft 9 kts 342°
2026-05-05 13:21 51.75501 -1.56779 276 ft 7 kts 343°
2026-05-05 13:21 51.75544 -1.56799 276 ft 6 kts 343°
2026-05-05 13:21 51.75585 -1.56817 278 ft 6 kts 344°
2026-05-05 13:21 51.75629 -1.56837 276 ft 7 kts 344°
2026-05-05 13:22 51.75678 -1.56859 276 ft 8 kts 344°
2026-05-05 13:22 51.75731 -1.56882 276 ft 5 kts 351°
2026-05-05 13:22 51.75755 -1.56858 278 ft 5 kts 45°
2026-05-05 13:22 51.75766 -1.56783 275 ft 9 kts 99°
2026-05-05 13:23 51.75721 -1.56716 275 ft 13 kts 137°
2026-05-05 13:23 51.75712 -1.56703 275 ft 0 kts 137°